Terminal Aerodrome Forecast
Issued by NWS

Home | Current Version | Previous Version | Text Only | Print | Product List | Glossary On
Versions: 1 2 3 4 5 6 7 8 9 10 11 12 13
000
FTUS44 KLZK 250500
TAFPBF
TAF
KPBF 250532Z 2506/2606 20003KT P6SM SKC
     FM251500 25007KT P6SM SCT250
     FM260000 22003KT P6SM SCT250=

USA.gov is the U.S. government's official web portal to all federal, state and local government web resources and services.